Time;durP1;ratioP1;P1;durP2;ratioP2;P2;SDS_P1;SDS_P2;PMS_P1;PMS_P2;Temp;Humidity;BMP_temperature;BMP_pressure;BME280_temperature;BME280_humidity;BME280_pressure;Samples;Min_cycle;Max_cycle;Signal;HPM_P1;HPM_P2
2023/09/19 00:01:42;;;;;;;1.55;1.20;;;;;;;;;;5100633;28;20207;-67
2023/09/19 00:04:12;;;;;;;2.25;1.38;;;;;;;;;;5100785;28;20242;-67
2023/09/19 00:06:40;;;;;;;1.42;1.25;;;;;;;;;;5100686;28;20504;-68
2023/09/19 00:09:10;;;;;;;1.65;1.10;;;;;;;;;;5100489;28;20223;-67
2023/09/19 00:11:38;;;;;;;0.95;0.90;;;;;;;;;;5100702;28;20244;-67
2023/09/19 00:14:08;;;;;;;1.15;1.05;;;;;;;;;;5100037;28;20476;-68
2023/09/19 00:16:36;;;;;;;1.58;1.25;;;;;;;;;;5100424;28;20246;-67
2023/09/19 00:19:04;;;;;;;1.30;1.20;;;;;;;;;;5100162;28;20199;-67
2023/09/19 00:21:35;;;;;;;1.42;1.23;;;;;;;;;;5100299;28;20203;-67
2023/09/19 00:24:03;;;;;;;1.80;1.30;;;;;;;;;;5100480;28;20581;-67
2023/09/19 00:26:34;;;;;;;1.13;1.02;;;;;;;;;;5100099;28;20207;-67
2023/09/19 00:29:08;;;;;;;1.67;1.05;;;;;;;;;;5100288;28;20476;-67
2023/09/19 00:31:37;;;;;;;1.30;1.20;;;;;;;;;;5099669;28;20287;-67
2023/09/19 00:34:06;;;;;;;1.15;1.05;;;;;;;;;;5099621;28;20204;-67
2023/09/19 00:36:35;;;;;;;1.35;1.10;;;;;;;;;;5100001;28;20246;-68
2023/09/19 00:39:02;;;;;;;1.27;1.10;;;;;;;;;;5099917;28;20199;-67
2023/09/19 00:41:30;;;;;;;1.30;1.15;;;;;;;;;;5100299;28;20504;-68
2023/09/19 00:43:59;;;;;;;1.60;1.10;;;;;;;;;;5100270;28;20233;-67
2023/09/19 00:46:27;;;;;;;1.08;0.98;;;;;;;;;;5099477;28;20195;-67
2023/09/19 00:48:56;;;;;;;1.38;1.20;;;;;;;;;;5099251;28;20516;-68
2023/09/19 00:51:25;;;;;;;1.55;1.15;;;;;;;;;;5099573;28;20203;-67
2023/09/19 00:53:54;;;;;;;1.65;1.17;;;;;;;;;;5099115;28;20215;-67
2023/09/19 00:56:23;;;;;;;3.20;1.10;;;;;;;;;;5099480;28;20555;-67
2023/09/19 00:58:50;;;;;;;1.17;1.00;;;;;;;;;;5100169;28;20476;-67
2023/09/19 01:01:18;;;;;;;1.23;1.00;;;;;;;;;;5099504;28;20211;-67
2023/09/19 01:03:46;;;;;;;1.15;1.00;;;;;;;;;;5099864;28;20243;-67
2023/09/19 01:06:14;;;;;;;1.40;1.08;;;;;;;;;;5099274;28;20486;-67
2023/09/19 01:08:41;;;;;;;1.35;1.10;;;;;;;;;;5098625;28;20214;-67
2023/09/19 01:11:14;;;;;;;1.90;1.25;;;;;;;;;;5099166;28;20211;-67
2023/09/19 01:13:49;;;;;;;1.25;0.93;;;;;;;;;;5098991;28;20228;-68
2023/09/19 01:16:21;;;;;;;1.10;1.00;;;;;;;;;;5099025;28;20203;-67
2023/09/19 01:18:52;;;;;;;0.90;0.90;;;;;;;;;;5098997;28;20203;-67
2023/09/19 01:21:23;;;;;;;1.00;0.90;;;;;;;;;;5098855;28;20235;-68
2023/09/19 01:24:03;;;;;;;1.98;0.98;;;;;;;;;;5099099;28;20471;-67
2023/09/19 01:26:44;;;;;;;1.70;0.90;;;;;;;;;;5099097;28;20214;-67
2023/09/19 01:29:29;;;;;;;2.30;1.02;;;;;;;;;;5098919;28;20231;-67
2023/09/19 01:32:01;;;;;;;1.20;1.02;;;;;;;;;;5099230;28;20230;-68
2023/09/19 01:34:28;;;;;;;1.20;0.98;;;;;;;;;;5098682;28;20231;-67
2023/09/19 01:36:58;;;;;;;1.38;0.90;;;;;;;;;;5099086;28;20263;-67
2023/09/19 01:39:25;;;;;;;1.10;0.90;;;;;;;;;;5098812;28;20623;-67
2023/09/19 01:42:04;;;;;;;2.08;1.13;;;;;;;;;;5099127;28;20204;-68
2023/09/19 01:44:35;;;;;;;1.42;1.10;;;;;;;;;;5098706;28;20214;-68
2023/09/19 01:47:08;;;;;;;2.95;1.30;;;;;;;;;;5098260;28;20203;-68
2023/09/19 01:49:39;;;;;;;1.13;0.95;;;;;;;;;;5098700;28;20499;-67
2023/09/19 01:52:13;;;;;;;1.60;1.00;;;;;;;;;;5098838;28;20208;-67
2023/09/19 01:54:43;;;;;;;1.88;1.05;;;;;;;;;;5098026;28;20230;-67
2023/09/19 01:57:16;;;;;;;1.20;1.10;;;;;;;;;;5098176;28;20274;-67
2023/09/19 01:59:47;;;;;;;1.65;0.90;;;;;;;;;;5098570;28;20195;-67
2023/09/19 02:02:17;;;;;;;1.80;1.05;;;;;;;;;;5098327;28;20292;-67
2023/09/19 02:04:45;;;;;;;1.60;1.15;;;;;;;;;;5098272;28;20210;-67
2023/09/19 02:07:15;;;;;;;1.10;1.00;;;;;;;;;;5098105;28;20231;-67
2023/09/19 02:09:42;;;;;;;1.92;0.93;;;;;;;;;;5098035;28;20234;-67
2023/09/19 02:12:10;;;;;;;1.58;1.00;;;;;;;;;;5097894;28;20250;-68
2023/09/19 02:14:38;;;;;;;1.20;1.10;;;;;;;;;;5097999;28;20215;-67
2023/09/19 02:17:11;;;;;;;1.15;1.00;;;;;;;;;;5097969;28;20626;-68
2023/09/19 02:19:40;;;;;;;1.23;1.10;;;;;;;;;;5097409;28;20199;-67
2023/09/19 02:22:10;;;;;;;1.50;0.98;;;;;;;;;;5098087;28;20233;-67
2023/09/19 02:24:38;;;;;;;1.77;1.08;;;;;;;;;;5098007;28;20211;-67
2023/09/19 02:27:05;;;;;;;1.35;1.10;;;;;;;;;;5097816;28;20204;-67
2023/09/19 02:29:35;;;;;;;0.85;0.85;;;;;;;;;;5097947;28;20262;-67
2023/09/19 02:32:02;;;;;;;1.20;1.10;;;;;;;;;;5097994;28;20204;-67
2023/09/19 02:34:31;;;;;;;1.30;1.20;;;;;;;;;;5098071;28;20622;-67
2023/09/19 02:37:00;;;;;;;1.13;1.02;;;;;;;;;;5097956;28;20612;-68
2023/09/19 02:39:28;;;;;;;1.38;1.10;;;;;;;;;;5097924;28;20242;-67
2023/09/19 02:41:56;;;;;;;1.15;1.05;;;;;;;;;;5097606;28;20211;-67
2023/09/19 02:44:23;;;;;;;1.55;1.10;;;;;;;;;;5098078;28;20209;-67
2023/09/19 02:46:51;;;;;;;1.30;1.08;;;;;;;;;;5097468;28;20234;-67
2023/09/19 02:49:19;;;;;;;2.50;1.15;;;;;;;;;;5097298;28;20243;-67
2023/09/19 02:51:47;;;;;;;1.73;1.25;;;;;;;;;;5097662;28;20311;-68
2023/09/19 02:54:17;;;;;;;1.38;1.27;;;;;;;;;;5097673;28;20214;-67
2023/09/19 02:59:26;;;;;;;1.35;1.20;;;;;;;;;;5097067;28;20199;-67
2023/09/19 03:01:54;;;;;;;1.10;1.00;;;;;;;;;;5096710;28;20207;-67
2023/09/19 03:04:21;;;;;;;2.28;1.00;;;;;;;;;;5097766;28;20211;-67
2023/09/19 03:06:51;;;;;;;1.17;1.02;;;;;;;;;;5097475;28;20211;-67
2023/09/19 03:09:20;;;;;;;1.38;1.08;;;;;;;;;;5097488;28;20203;-67
2023/09/19 03:11:47;;;;;;;1.20;1.08;;;;;;;;;;5097104;28;20203;-67
2023/09/19 03:14:15;;;;;;;1.08;0.98;;;;;;;;;;5057105;28;20260;-68
2023/09/19 03:16:44;;;;;;;1.20;1.10;;;;;;;;;;5056669;28;20241;-67
2023/09/19 03:19:12;;;;;;;1.38;1.20;;;;;;;;;;5076683;28;20204;-67
2023/09/19 03:21:39;;;;;;;1.38;1.00;;;;;;;;;;5076574;28;20212;-67
2023/09/19 03:24:07;;;;;;;1.45;1.23;;;;;;;;;;5076971;28;20212;-67
2023/09/19 03:26:37;;;;;;;1.05;0.90;;;;;;;;;;5076627;28;20334;-67
2023/09/19 03:29:07;;;;;;;1.77;1.00;;;;;;;;;;5077026;28;20266;-66
2023/09/19 03:31:37;;;;;;;1.15;0.90;;;;;;;;;;5079092;28;20318;-67
2023/09/19 03:34:05;;;;;;;1.23;1.00;;;;;;;;;;5081109;28;20204;-67
2023/09/19 03:36:35;;;;;;;1.70;1.08;;;;;;;;;;5080576;28;20309;-67
2023/09/19 03:39:04;;;;;;;1.10;1.00;;;;;;;;;;5080827;28;20208;-67
2023/09/19 03:41:33;;;;;;;1.52;0.93;;;;;;;;;;5080311;28;20645;-67
2023/09/19 03:44:02;;;;;;;0.98;0.95;;;;;;;;;;5079924;28;20235;-67
2023/09/19 03:46:30;;;;;;;3.05;1.20;;;;;;;;;;5080370;28;20269;-67
2023/09/19 03:48:57;;;;;;;0.98;0.95;;;;;;;;;;5079907;28;20306;-67
2023/09/19 03:51:25;;;;;;;0.95;0.90;;;;;;;;;;5079739;28;20235;-67
2023/09/19 03:53:52;;;;;;;1.40;1.10;;;;;;;;;;5079242;28;20267;-67
2023/09/19 03:56:20;;;;;;;1.15;0.90;;;;;;;;;;5080105;28;20600;-68
2023/09/19 03:58:48;;;;;;;1.10;1.00;;;;;;;;;;5079437;28;20270;-67
2023/09/19 04:01:18;;;;;;;1.73;1.10;;;;;;;;;;5079770;28;20201;-68
2023/09/19 04:03:48;;;;;;;1.27;1.00;;;;;;;;;;5079940;28;20398;-67
2023/09/19 04:06:16;;;;;;;1.35;1.10;;;;;;;;;;5079286;28;20295;-67
2023/09/19 04:08:43;;;;;;;1.20;1.10;;;;;;;;;;5079434;28;20240;-67
2023/09/19 04:11:11;;;;;;;1.13;0.93;;;;;;;;;;5079756;28;20294;-67
2023/09/19 04:13:39;;;;;;;1.05;1.00;;;;;;;;;;5094868;28;20243;-67
2023/09/19 04:16:06;;;;;;;1.65;1.00;;;;;;;;;;5099669;28;20210;-67
2023/09/19 04:18:38;;;;;;;1.40;0.93;;;;;;;;;;5100058;28;20231;-67
2023/09/19 04:21:05;;;;;;;1.00;0.93;;;;;;;;;;5099411;28;20227;-67
2023/09/19 04:23:33;;;;;;;1.20;1.10;;;;;;;;;;5099449;28;20272;-67
2023/09/19 04:26:00;;;;;;;1.15;0.95;;;;;;;;;;5099926;28;20300;-67
2023/09/19 04:28:28;;;;;;;3.13;1.20;;;;;;;;;;5099989;28;20203;-68
2023/09/19 04:30:56;;;;;;;2.03;1.20;;;;;;;;;;5099262;28;20835;-67
2023/09/19 04:33:23;;;;;;;1.33;1.10;;;;;;;;;;5099189;28;20203;-69
2023/09/19 04:35:52;;;;;;;1.42;1.00;;;;;;;;;;5099021;28;20199;-67
2023/09/19 04:38:20;;;;;;;1.63;1.10;;;;;;;;;;5098595;28;20527;-67
2023/09/19 04:40:47;;;;;;;1.45;1.00;;;;;;;;;;5098098;28;20207;-67
2023/09/19 04:43:15;;;;;;;1.25;1.00;;;;;;;;;;5097353;28;20208;-67
2023/09/19 04:45:43;;;;;;;1.70;0.88;;;;;;;;;;5097714;28;20204;-67
2023/09/19 04:48:10;;;;;;;1.10;1.00;;;;;;;;;;5098097;28;20203;-67
2023/09/19 04:50:38;;;;;;;1.30;1.20;;;;;;;;;;5097908;28;20223;-67
2023/09/19 04:53:07;;;;;;;2.67;1.08;;;;;;;;;;5097811;28;20647;-68
2023/09/19 04:55:35;;;;;;;1.40;1.20;;;;;;;;;;5097088;28;20230;-68
2023/09/19 04:58:03;;;;;;;1.20;1.10;;;;;;;;;;5097001;28;20700;-67
2023/09/19 05:00:34;;;;;;;1.08;0.98;;;;;;;;;;5097867;28;20207;-67
2023/09/19 05:03:04;;;;;;;2.08;1.10;;;;;;;;;;5097045;28;20214;-67
2023/09/19 05:05:32;;;;;;;1.10;1.00;;;;;;;;;;5096903;28;20252;-67
2023/09/19 05:07:59;;;;;;;1.10;1.00;;;;;;;;;;5096326;28;20310;-67
2023/09/19 05:10:28;;;;;;;2.28;1.20;;;;;;;;;;5096799;28;20334;-67
2023/09/19 05:12:56;;;;;;;2.30;1.30;;;;;;;;;;5096789;28;20675;-67
2023/09/19 05:15:24;;;;;;;1.17;1.10;;;;;;;;;;5097200;28;20200;-68
2023/09/19 05:17:54;;;;;;;1.38;1.00;;;;;;;;;;5095814;28;20215;-68
2023/09/19 05:20:29;;;;;;;1.70;0.95;;;;;;;;;;5095145;28;20211;-67
2023/09/19 05:23:01;;;;;;;1.55;1.45;;;;;;;;;;5095580;28;20207;-67
2023/09/19 05:25:30;;;;;;;1.75;1.20;;;;;;;;;;5095812;28;20203;-67
2023/09/19 05:27:58;;;;;;;1.50;1.00;;;;;;;;;;5095854;28;20212;-67
2023/09/19 05:30:27;;;;;;;1.10;1.00;;;;;;;;;;5095709;28;20234;-67
2023/09/19 05:32:55;;;;;;;1.70;1.27;;;;;;;;;;5096060;28;20203;-67
2023/09/19 05:35:23;;;;;;;1.60;0.98;;;;;;;;;;5095928;28;20254;-67
2023/09/19 05:37:52;;;;;;;1.42;1.10;;;;;;;;;;5095519;28;20596;-67
2023/09/19 05:40:19;;;;;;;1.02;0.93;;;;;;;;;;5095001;28;20831;-67
2023/09/19 05:42:50;;;;;;;1.10;1.00;;;;;;;;;;5094973;28;20196;-67
2023/09/19 05:45:22;;;;;;;1.08;0.88;;;;;;;;;;5094785;28;20203;-67
2023/09/19 05:47:49;;;;;;;2.25;1.08;;;;;;;;;;5095183;28;20212;-67
2023/09/19 05:50:18;;;;;;;1.52;1.27;;;;;;;;;;5095442;28;20204;-67
2023/09/19 05:52:45;;;;;;;1.17;1.00;;;;;;;;;;5095319;28;20261;-67
2023/09/19 05:55:12;;;;;;;1.80;1.15;;;;;;;;;;5095657;28;20206;-67
2023/09/19 05:57:42;;;;;;;1.33;1.00;;;;;;;;;;5095602;28;20211;-67
2023/09/19 06:00:11;;;;;;;1.50;1.20;;;;;;;;;;5094289;28;20311;-67
2023/09/19 06:02:40;;;;;;;1.20;1.00;;;;;;;;;;5095026;28;20226;-67
2023/09/19 06:05:10;;;;;;;2.58;1.10;;;;;;;;;;5094929;28;20203;-68
2023/09/19 06:07:37;;;;;;;1.88;1.05;;;;;;;;;;5095308;28;20264;-68
2023/09/19 06:10:07;;;;;;;1.83;1.02;;;;;;;;;;5095639;28;20273;-67
2023/09/19 06:12:37;;;;;;;1.65;1.10;;;;;;;;;;5094846;28;20281;-67
2023/09/19 06:15:08;;;;;;;1.25;1.15;;;;;;;;;;5095899;28;20208;-67
2023/09/19 06:17:38;;;;;;;1.83;1.10;;;;;;;;;;5095265;28;20269;-67
2023/09/19 06:20:10;;;;;;;1.25;1.13;;;;;;;;;;5096107;28;20218;-67
2023/09/19 06:22:38;;;;;;;1.15;1.05;;;;;;;;;;5095706;28;20275;-67
2023/09/19 06:25:06;;;;;;;1.67;1.20;;;;;;;;;;5095292;28;20213;-67
2023/09/19 06:27:36;;;;;;;1.23;1.13;;;;;;;;;;5095325;28;20203;-67
2023/09/19 06:30:04;;;;;;;2.78;1.13;;;;;;;;;;5095636;28;20477;-67
2023/09/19 06:32:31;;;;;;;1.23;1.13;;;;;;;;;;5095344;28;20234;-67
2023/09/19 06:35:00;;;;;;;1.50;1.15;;;;;;;;;;5096162;28;20211;-67
2023/09/19 06:37:28;;;;;;;1.95;1.20;;;;;;;;;;5095588;28;20210;-67
2023/09/19 06:39:56;;;;;;;1.48;1.30;;;;;;;;;;5096169;28;20644;-67
2023/09/19 06:42:24;;;;;;;1.42;1.20;;;;;;;;;;5095424;28;20230;-68
2023/09/19 06:44:52;;;;;;;1.70;1.30;;;;;;;;;;5095463;28;20243;-67
2023/09/19 06:47:20;;;;;;;0.98;0.98;;;;;;;;;;5096025;28;20206;-67
2023/09/19 06:49:48;;;;;;;2.13;1.15;;;;;;;;;;5094199;28;20605;-67
2023/09/19 06:52:17;;;;;;;1.98;1.30;;;;;;;;;;5095131;28;20334;-67
2023/09/19 06:54:45;;;;;;;1.20;1.08;;;;;;;;;;5096269;28;20242;-67
2023/09/19 06:57:13;;;;;;;1.23;1.13;;;;;;;;;;5095435;28;20286;-67
2023/09/19 06:59:41;;;;;;;1.67;1.00;;;;;;;;;;5094612;28;20203;-67
2023/09/19 07:02:08;;;;;;;1.90;1.30;;;;;;;;;;5096143;28;20243;-67
2023/09/19 07:04:35;;;;;;;1.50;1.10;;;;;;;;;;5095366;28;20235;-67
2023/09/19 07:07:03;;;;;;;1.75;1.15;;;;;;;;;;5097664;28;20203;-67
2023/09/19 07:09:32;;;;;;;1.52;1.15;;;;;;;;;;5099335;28;20307;-67
2023/09/19 07:12:00;;;;;;;1.30;1.20;;;;;;;;;;5099201;28;20227;-67
2023/09/19 07:14:30;;;;;;;1.27;1.17;;;;;;;;;;5099664;28;20204;-67
2023/09/19 07:16:59;;;;;;;1.45;1.10;;;;;;;;;;5100023;28;20199;-67
2023/09/19 07:19:28;;;;;;;1.85;1.20;;;;;;;;;;5099562;28;20206;-67
2023/09/19 07:21:56;;;;;;;2.33;1.48;;;;;;;;;;5099520;28;20608;-67
2023/09/19 07:24:23;;;;;;;1.30;1.20;;;;;;;;;;5099121;28;20235;-67
2023/09/19 07:26:52;;;;;;;1.70;1.10;;;;;;;;;;5099453;28;20630;-67
2023/09/19 07:29:20;;;;;;;1.20;1.10;;;;;;;;;;5099208;28;20210;-67
2023/09/19 07:31:48;;;;;;;1.35;1.23;;;;;;;;;;5098519;28;20290;-67
2023/09/19 07:34:15;;;;;;;1.52;1.38;;;;;;;;;;5099084;28;20215;-67
2023/09/19 07:36:43;;;;;;;1.40;1.10;;;;;;;;;;5099361;28;20203;-67
2023/09/19 07:39:11;;;;;;;1.73;1.15;;;;;;;;;;5099337;28;20615;-67
2023/09/19 07:41:38;;;;;;;1.20;1.10;;;;;;;;;;5098634;28;20199;-67
2023/09/19 07:44:07;;;;;;;2.63;1.50;;;;;;;;;;5099043;28;20246;-67
2023/09/19 07:46:34;;;;;;;2.55;1.40;;;;;;;;;;5098678;28;20243;-67
2023/09/19 07:49:02;;;;;;;1.75;1.08;;;;;;;;;;5098841;28;20607;-67
2023/09/19 07:51:30;;;;;;;1.35;1.25;;;;;;;;;;5098311;28;20625;-67
2023/09/19 07:53:58;;;;;;;1.52;1.20;;;;;;;;;;5098378;28;20219;-67
2023/09/19 07:56:26;;;;;;;2.63;1.10;;;;;;;;;;5097625;28;20211;-67
2023/09/19 07:58:53;;;;;;;1.98;1.20;;;;;;;;;;5097653;28;20302;-67
2023/09/19 08:01:23;;;;;;;1.60;1.20;;;;;;;;;;5098271;28;20491;-67
2023/09/19 08:03:51;;;;;;;1.45;1.15;;;;;;;;;;5098335;28;20196;-67
2023/09/19 08:06:20;;;;;;;1.00;0.90;;;;;;;;;;5098065;28;20249;-67
2023/09/19 08:08:49;;;;;;;1.27;1.10;;;;;;;;;;5098042;28;20199;-67
2023/09/19 08:11:21;;;;;;;0.93;0.90;;;;;;;;;;5098430;28;20235;-67
2023/09/19 08:13:48;;;;;;;1.50;1.10;;;;;;;;;;5097848;28;20335;-67
2023/09/19 08:16:17;;;;;;;1.42;1.27;;;;;;;;;;5097964;28;20538;-67
2023/09/19 08:18:54;;;;;;;1.27;0.85;;;;;;;;;;5097761;28;20230;-67
2023/09/19 08:21:23;;;;;;;1.15;1.00;;;;;;;;;;5098150;28;20469;-67
2023/09/19 08:23:50;;;;;;;1.10;0.90;;;;;;;;;;5098054;28;20299;-67
2023/09/19 08:26:19;;;;;;;1.77;1.20;;;;;;;;;;5098413;28;20291;-67
2023/09/19 08:28:47;;;;;;;1.50;0.98;;;;;;;;;;5098128;28;20219;-67
2023/09/19 08:31:17;;;;;;;1.90;1.10;;;;;;;;;;5097623;28;20208;-67
2023/09/19 08:33:47;;;;;;;1.40;0.90;;;;;;;;;;5097548;28;20246;-67
2023/09/19 08:36:15;;;;;;;1.13;0.80;;;;;;;;;;5097901;28;20272;-67
2023/09/19 08:38:43;;;;;;;1.48;0.80;;;;;;;;;;5095692;28;20345;-67
2023/09/19 08:41:10;;;;;;;1.23;0.90;;;;;;;;;;5097049;28;20218;-67
2023/09/19 08:43:38;;;;;;;1.30;0.90;;;;;;;;;;5097697;28;20204;-67
2023/09/19 08:46:11;;;;;;;0.98;0.90;;;;;;;;;;5097617;28;20722;-67
2023/09/19 08:48:41;;;;;;;1.05;0.90;;;;;;;;;;5096458;28;20594;-68
2023/09/19 08:51:09;;;;;;;1.10;0.90;;;;;;;;;;5096707;28;20609;-67
2023/09/19 08:53:45;;;;;;;0.88;0.77;;;;;;;;;;5098231;28;20211;-67
2023/09/19 08:56:14;;;;;;;1.05;0.88;;;;;;;;;;5097094;28;20658;-69
2023/09/19 08:58:47;;;;;;;1.33;0.90;;;;;;;;;;5096934;28;20680;-68
2023/09/19 09:01:16;;;;;;;0.73;0.73;;;;;;;;;;5097235;28;20207;-68
2023/09/19 09:03:46;;;;;;;1.60;0.90;;;;;;;;;;5096570;28;20219;-68
2023/09/19 09:06:16;;;;;;;0.77;0.68;;;;;;;;;;5096290;28;20645;-68
2023/09/19 09:08:45;;;;;;;0.70;0.70;;;;;;;;;;5096167;28;20202;-67
2023/09/19 09:11:12;;;;;;;1.38;0.90;;;;;;;;;;5096892;28;20210;-68
2023/09/19 09:13:41;;;;;;;0.90;0.90;;;;;;;;;;5097301;28;20279;-67
2023/09/19 09:16:09;;;;;;;1.42;1.00;;;;;;;;;;5099805;28;20596;-68
2023/09/19 09:18:37;;;;;;;1.10;0.80;;;;;;;;;;5116690;28;20229;-68
2023/09/19 09:21:05;;;;;;;0.68;0.68;;;;;;;;;;5116962;28;20395;-68
2023/09/19 09:23:32;;;;;;;2.92;0.90;;;;;;;;;;5116442;28;20272;-68
2023/09/19 09:26:05;;;;;;;1.20;0.82;;;;;;;;;;5116210;28;20210;-68
2023/09/19 09:28:33;;;;;;;1.30;0.98;;;;;;;;;;5117066;28;20373;-67
2023/09/19 09:31:02;;;;;;;1.50;1.00;;;;;;;;;;5115974;28;20269;-67
2023/09/19 09:33:29;;;;;;;1.45;0.80;;;;;;;;;;5115175;28;20843;-68
2023/09/19 09:36:00;;;;;;;2.90;1.17;;;;;;;;;;5115311;28;20234;-68
2023/09/19 09:38:31;;;;;;;1.13;0.80;;;;;;;;;;5116042;28;20589;-68
2023/09/19 09:41:01;;;;;;;1.63;1.10;;;;;;;;;;5115749;28;20288;-68
2023/09/19 09:43:35;;;;;;;1.25;0.80;;;;;;;;;;5116579;28;20195;-67
2023/09/19 09:49:18;;;;;;;2.47;1.20;;;;;;;;;;5111256;28;20202;-68
2023/09/19 09:51:47;;;;;;;1.38;1.08;;;;;;;;;;5115935;28;20246;-68
2023/09/19 09:54:15;;;;;;;1.98;1.30;;;;;;;;;;5115550;28;20264;-67
2023/09/19 09:57:00;;;;;;;1.20;1.10;;;;;;;;;;5115835;28;20268;-68
2023/09/19 09:59:46;;;;;;;2.33;1.25;;;;;;;;;;5115698;28;20384;-67
2023/09/19 10:02:20;;;;;;;1.75;1.08;;;;;;;;;;5115258;28;20489;-67
2023/09/19 10:04:58;;;;;;;1.23;0.90;;;;;;;;;;5114694;28;20248;-67
2023/09/19 10:07:32;;;;;;;1.70;1.25;;;;;;;;;;5115114;28;20233;-68
2023/09/19 10:10:09;;;;;;;1.45;1.17;;;;;;;;;;5115345;28;20286;-68
2023/09/19 10:12:40;;;;;;;1.92;1.10;;;;;;;;;;5114434;28;20238;-68
2023/09/19 10:15:10;;;;;;;1.30;1.20;;;;;;;;;;5114600;28;20206;-68
2023/09/19 10:17:44;;;;;;;1.75;1.20;;;;;;;;;;5114788;28;20298;-67
2023/09/19 10:20:33;;;;;;;2.13;1.38;;;;;;;;;;5114541;28;20203;-67
2023/09/19 10:23:09;;;;;;;2.17;1.35;;;;;;;;;;5114487;28;20391;-68
2023/09/19 10:25:38;;;;;;;2.30;1.25;;;;;;;;;;5113386;28;20202;-67
2023/09/19 10:28:10;;;;;;;1.63;1.10;;;;;;;;;;5114419;28;20611;-67
2023/09/19 10:30:41;;;;;;;1.58;0.98;;;;;;;;;;5114890;28;20202;-67
2023/09/19 10:33:11;;;;;;;1.25;1.10;;;;;;;;;;5114590;28;20227;-68
2023/09/19 10:35:41;;;;;;;1.27;1.02;;;;;;;;;;5114248;28;20225;-69
2023/09/19 10:38:08;;;;;;;1.27;1.17;;;;;;;;;;5113991;28;20745;-68
2023/09/19 10:40:36;;;;;;;1.30;1.20;;;;;;;;;;5113053;28;20210;-68
2023/09/19 10:43:05;;;;;;;0.98;0.88;;;;;;;;;;5114543;28;20210;-68
2023/09/19 10:45:33;;;;;;;1.42;1.33;;;;;;;;;;5114100;28;20203;-68
2023/09/19 10:48:02;;;;;;;1.77;1.10;;;;;;;;;;5114854;28;20226;-68
2023/09/19 10:50:34;;;;;;;1.20;1.10;;;;;;;;;;5114580;28;20206;-68
2023/09/19 10:53:04;;;;;;;2.58;1.00;;;;;;;;;;5115276;28;20232;-67
2023/09/19 10:55:35;;;;;;;1.20;1.10;;;;;;;;;;5114550;28;20199;-67
2023/09/19 10:58:14;;;;;;;1.20;1.10;;;;;;;;;;5114851;28;20243;-68
2023/09/19 11:01:07;;;;;;;1.58;1.05;;;;;;;;;;5114624;28;20230;-67
2023/09/19 11:03:37;;;;;;;1.20;1.10;;;;;;;;;;5109507;28;20298;-68
2023/09/19 11:06:09;;;;;;;1.05;0.95;;;;;;;;;;5114547;28;20264;-68
2023/09/19 11:08:57;;;;;;;1.50;1.20;;;;;;;;;;5115196;28;20268;-68
2023/09/19 11:11:45;;;;;;;1.10;1.00;;;;;;;;;;5114346;28;20616;-68
2023/09/19 11:14:16;;;;;;;1.60;1.20;;;;;;;;;;5113551;28;20275;-68
2023/09/19 11:17:13;;;;;;;1.42;1.00;;;;;;;;;;5115008;28;20318;-68
2023/09/19 11:20:00;;;;;;;1.17;1.08;;;;;;;;;;5114422;28;20212;-68
2023/09/19 11:22:49;;;;;;;1.35;1.10;;;;;;;;;;5114524;28;20253;-68
2023/09/19 11:25:33;;;;;;;1.30;1.20;;;;;;;;;;5114632;28;20272;-68
2023/09/19 11:28:30;;;;;;;1.30;1.20;;;;;;;;;;5113294;28;20213;-68
2023/09/19 11:30:58;;;;;;;1.30;1.05;;;;;;;;;;5113992;28;20264;-67
2023/09/19 11:33:28;;;;;;;1.63;1.20;;;;;;;;;;5113172;28;20431;-68
2023/09/19 11:36:05;;;;;;;1.45;1.13;;;;;;;;;;5113792;28;20245;-68
2023/09/19 11:38:51;;;;;;;1.50;1.38;;;;;;;;;;5114304;28;20628;-69
2023/09/19 11:41:37;;;;;;;1.20;1.10;;;;;;;;;;5114006;28;20227;-67
2023/09/19 11:44:23;;;;;;;1.77;1.02;;;;;;;;;;5113930;28;20297;-68
2023/09/19 11:46:56;;;;;;;1.40;1.15;;;;;;;;;;5101366;28;20205;-67
2023/09/19 11:49:29;;;;;;;1.20;1.10;;;;;;;;;;5113142;28;20226;-67
2023/09/19 11:51:57;;;;;;;1.60;1.30;;;;;;;;;;5115458;28;20254;-67
2023/09/19 11:54:28;;;;;;;1.58;1.30;;;;;;;;;;5118121;28;20231;-67
2023/09/19 11:56:57;;;;;;;1.35;1.25;;;;;;;;;;5118623;28;20210;-67
2023/09/19 11:59:28;;;;;;;1.38;1.27;;;;;;;;;;5117613;28;20214;-67
2023/09/19 12:01:58;;;;;;;2.10;1.38;;;;;;;;;;5117439;28;20205;-67
2023/09/19 12:04:38;;;;;;;2.03;1.45;;;;;;;;;;5117698;28;20245;-67
2023/09/19 12:07:10;;;;;;;1.73;1.50;;;;;;;;;;5117635;28;20213;-67
2023/09/19 12:09:43;;;;;;;1.40;1.30;;;;;;;;;;5110396;28;20214;-68
2023/09/19 12:12:12;;;;;;;1.58;1.48;;;;;;;;;;5116806;28;20245;-67
2023/09/19 12:14:41;;;;;;;1.67;1.17;;;;;;;;;;5117066;28;20221;-67
2023/09/19 12:17:13;;;;;;;2.63;1.58;;;;;;;;;;5117556;28;20195;-67
2023/09/19 12:19:40;;;;;;;1.40;1.30;;;;;;;;;;5117222;28;20214;-67
2023/09/19 12:22:09;;;;;;;1.40;1.30;;;;;;;;;;5116610;28;20301;-68
2023/09/19 12:24:38;;;;;;;2.05;1.45;;;;;;;;;;5116643;28;20260;-68
2023/09/19 12:27:06;;;;;;;2.42;1.52;;;;;;;;;;5116736;28;20237;-68
2023/09/19 12:29:34;;;;;;;2.05;1.58;;;;;;;;;;5117066;28;20316;-68
2023/09/19 12:32:03;;;;;;;1.67;1.52;;;;;;;;;;5115844;28;20227;-68
2023/09/19 12:34:34;;;;;;;1.60;1.50;;;;;;;;;;5116445;28;20223;-68
2023/09/19 12:37:15;;;;;;;1.70;1.60;;;;;;;;;;5115989;28;20239;-68
2023/09/19 12:39:43;;;;;;;1.98;1.73;;;;;;;;;;5116409;28;20289;-68
2023/09/19 12:42:13;;;;;;;1.77;1.50;;;;;;;;;;5116661;28;20237;-68
2023/09/19 12:44:43;;;;;;;1.95;1.67;;;;;;;;;;5116821;28;20298;-68
2023/09/19 12:47:19;;;;;;;2.15;1.83;;;;;;;;;;5116533;28;20497;-68
2023/09/19 12:50:06;;;;;;;2.80;1.85;;;;;;;;;;5115942;28;20268;-68
2023/09/19 12:52:37;;;;;;;1.92;1.55;;;;;;;;;;5114928;28;20215;-68
2023/09/19 12:55:06;;;;;;;1.92;1.63;;;;;;;;;;5116028;28;20209;-68
2023/09/19 12:57:34;;;;;;;2.83;1.70;;;;;;;;;;5116994;28;20210;-68
2023/09/19 13:00:02;;;;;;;2.40;1.90;;;;;;;;;;5116345;28;20226;-68
2023/09/19 13:02:30;;;;;;;1.95;1.75;;;;;;;;;;5116668;28;20203;-69
2023/09/19 13:04:59;;;;;;;2.08;1.70;;;;;;;;;;5115847;28;20210;-68
2023/09/19 13:07:45;;;;;;;1.88;1.73;;;;;;;;;;5116416;28;20285;-68
2023/09/19 13:10:15;;;;;;;1.85;1.65;;;;;;;;;;5116806;27;20764;-68
2023/09/19 13:12:44;;;;;;;2.17;1.58;;;;;;;;;;5136125;27;20226;-68
2023/09/19 13:15:13;;;;;;;2.13;1.75;;;;;;;;;;5137150;27;20237;-68
2023/09/19 13:17:45;;;;;;;2.08;1.70;;;;;;;;;;5136061;27;20203;-68
2023/09/19 13:20:24;;;;;;;2.13;1.92;;;;;;;;;;5136782;27;20198;-68
2023/09/19 13:22:58;;;;;;;2.22;2.03;;;;;;;;;;5136199;27;20771;-68
2023/09/19 13:25:26;;;;;;;1.88;1.77;;;;;;;;;;5136915;27;20260;-68
2023/09/19 13:27:55;;;;;;;4.28;2.13;;;;;;;;;;5136371;27;20217;-68
2023/09/19 13:30:24;;;;;;;2.40;2.20;;;;;;;;;;5136724;27;20212;-68
2023/09/19 13:32:53;;;;;;;3.25;2.35;;;;;;;;;;5136556;27;20766;-68
2023/09/19 13:35:21;;;;;;;2.30;2.08;;;;;;;;;;5136291;27;20213;-68
2023/09/19 13:37:51;;;;;;;2.15;1.80;;;;;;;;;;5135819;27;20202;-68
2023/09/19 13:40:20;;;;;;;2.70;2.10;;;;;;;;;;5135705;27;20210;-68
2023/09/19 13:42:48;;;;;;;2.88;2.08;;;;;;;;;;5135821;27;20220;-67
2023/09/19 13:45:18;;;;;;;2.78;2.10;;;;;;;;;;5136581;27;20749;-68
2023/09/19 13:47:45;;;;;;;2.47;2.28;;;;;;;;;;5135832;27;20202;-68
2023/09/19 13:50:12;;;;;;;2.13;1.92;;;;;;;;;;5136082;27;20218;-68
2023/09/19 13:52:40;;;;;;;2.88;2.00;;;;;;;;;;5136357;27;20225;-68
2023/09/19 13:55:07;;;;;;;2.58;2.00;;;;;;;;;;5118170;27;20205;-68
2023/09/19 13:57:36;;;;;;;3.90;2.22;;;;;;;;;;5114960;28;20306;-67
2023/09/19 14:00:05;;;;;;;2.10;1.90;;;;;;;;;;5114943;28;20573;-68
2023/09/19 14:02:32;;;;;;;3.83;2.20;;;;;;;;;;5114836;28;20280;-68
2023/09/19 14:05:00;;;;;;;3.70;2.20;;;;;;;;;;5115071;28;20222;-67
2023/09/19 14:07:27;;;;;;;2.75;2.08;;;;;;;;;;5113624;28;20882;-68
2023/09/19 14:09:54;;;;;;;3.53;2.17;;;;;;;;;;5114279;28;20290;-68
2023/09/19 14:12:22;;;;;;;5.35;2.42;;;;;;;;;;5113530;28;20235;-68
2023/09/19 14:14:51;;;;;;;3.08;2.33;;;;;;;;;;5115669;28;20233;-68
2023/09/19 14:17:18;;;;;;;2.58;2.05;;;;;;;;;;5114330;28;20216;-67
2023/09/19 14:19:46;;;;;;;2.35;1.85;;;;;;;;;;5113382;28;20498;-68
2023/09/19 14:22:14;;;;;;;2.72;2.15;;;;;;;;;;5113862;28;20245;-68
2023/09/19 14:24:42;;;;;;;3.72;2.10;;;;;;;;;;5097374;28;20499;-68
2023/09/19 14:27:10;;;;;;;2.47;2.00;;;;;;;;;;5093566;28;20235;-68
2023/09/19 14:29:37;;;;;;;2.42;2.22;;;;;;;;;;5093496;28;20206;-68
2023/09/19 14:32:07;;;;;;;3.50;2.20;;;;;;;;;;5093290;28;20298;-68
2023/09/19 14:34:36;;;;;;;2.95;2.10;;;;;;;;;;5093966;28;20233;-67
2023/09/19 14:37:04;;;;;;;3.25;2.10;;;;;;;;;;5093646;28;20200;-68
2023/09/19 14:39:31;;;;;;;2.92;2.40;;;;;;;;;;5093858;28;20328;-68
2023/09/19 14:41:58;;;;;;;2.20;2.00;;;;;;;;;;5093960;28;20588;-68
2023/09/19 14:44:26;;;;;;;2.28;2.08;;;;;;;;;;5095430;28;20206;-67
2023/09/19 14:46:54;;;;;;;2.60;2.30;;;;;;;;;;5093970;28;20286;-68
2023/09/19 14:49:23;;;;;;;3.30;2.10;;;;;;;;;;5094751;28;20564;-68
2023/09/19 14:51:52;;;;;;;2.80;1.92;;;;;;;;;;5093928;28;20504;-67
2023/09/19 14:54:20;;;;;;;2.10;1.90;;;;;;;;;;5092762;28;20219;-68
2023/09/19 14:56:53;;;;;;;3.00;2.10;;;;;;;;;;5093212;28;20211;-68
2023/09/19 14:59:21;;;;;;;2.33;1.88;;;;;;;;;;5094069;28;20242;-69
2023/09/19 15:01:50;;;;;;;3.42;2.00;;;;;;;;;;5094153;28;20227;-67
2023/09/19 15:04:17;;;;;;;2.63;2.15;;;;;;;;;;5094503;28;20230;-68
2023/09/19 15:06:48;;;;;;;2.35;2.03;;;;;;;;;;5094451;28;20245;-68